Webcam 1 more information Webcam 1


Webcam 2 more information Webcam 2


avvertimento per Temporali more information blitzortung!


avvertimento per Pioggia more information rain snow radar


altri nostri siti meteo:

Pomeziameteo 1Sito sul meteo

Pomeziameteo DashboardSito sul meteo

Caput FrigorisSito sul meteo

BarcellonameteoSito sul meteo

MeteoipassiSito sul meteo

ViterbometeoSito sul meteo

MeteotortoretoSito sul meteo

Stazione LineameteoSito sul meteo



Temporali Inizio validita dal: 24-08-2019 11:00 Fino: 18:59 Allerta per: Temporali Livello: Arancione info button
Pioggia Inizio validita dal: 24-08-2019 11:00 Fino: 18:59 Allerta per: Pioggia Livello: Giallo info button

Notice: Undefined offset: 6 in /web/htdocs/www.castelnuovovomanometeo.it/home/weather28/metar/metarDisplay.php on line 76

Notice: Undefined offset: 5 in /web/htdocs/www.castelnuovovomanometeo.it/home/weather28/metar/metarDisplay.php on line 76

Report METAR

   
LIBP - Pescara
Dati ricevuti: 24-08-2019 17:50
Poche nuvole  
Poche nuvole  
   Vento: Nord 13 km/h
Vento: Nord 13 km/h
Temperatura: 27°C
Indice di Calore: 29°C
P.to Rugiada: 23°C
Umidita: 79%
Barometro: 1017 hPa
Nuvole: Poche nuvole
Visibilita: oltre 10 km
dettagli cloud: Poche nuvole 2000 ft
LIBP 241550Z 36007KT 9999 FEW020 27/23 Q1017
LIRZ - Perugia
Dati ricevuti: 24-08-2019 17:50
Temporale, Parzialmente nuvoloso  
Temporale, Parzialmente nuvoloso  
   Vento: NE 18.5 km/h
Vento: NE 18.5 km/h
Temperatura: 25°C
P.to Rugiada: 17°C
Umidita: 61%
Barometro: 1018 hPa
Nuvole: Parzialmente nuvoloso
Visibilita: oltre 10 km
dettagli cloud: Parzialmente nuvoloso 5000 ft
LIRZ 241550Z 04010KT 340V120 9999 TS SCT050CB 25/17 Q1018
LIQN - Rieti
Dati ricevuti: 24-08-2019 17:50
Temporale, Nearby Showers, Molto nuvoloso  
Temporale, Nearby Showers, Molto nuvoloso  
   Vento: Nord 25.9 km/h
Vento: Nord 25.9 km/h
Temperatura: 23°C
P.to Rugiada: 15°C
Umidita: 61%
Barometro: 1017 hPa
Nuvole: Molto nuvoloso
Visibilita: 9 km
dettagli cloud: Molto nuvoloso 5000 ft
LIQN 241550Z 35014KT 9000 TS VCSH BKN050CB 23/15 Q1017
LIPY - Falconara
Dati ricevuti: 24-08-2019 17:50
Parzialmente nuvoloso  
Parzialmente nuvoloso  
   Vento: NNW 11.1 km/h
Vento: NNW 11.1 km/h
Temperatura: 26°C
P.to Rugiada: 23°C
Umidita: 84%
Barometro: 1017 hPa
Nuvole: Parzialmente nuvoloso
Visibilita: oltre 10 km
dettagli cloud: Parzialmente nuvoloso 6000 ft
LIPY 241550Z 34006KT 9999 SCT060 26/23 Q1017
  

Script sviluppato da  Saratoga-weather.org Adattato per il modello da  Weerstation Leuven

Potete trovare le nostre info meteo anche a:

Weather Underground

AWEKAS

Citizen Weather Observer Program (CWOP)

HAMweather, WeatherForYou, PWS Weather

Strumentazione usata:

Stazione meteo
Oregon 928

Programma gestore dati meteo
WVIEW

Server per i dati meteo
Pc-WDS5

Oregon 928

WVIEW

Pc-WDS5